createdAt,value
2023-04-05T00:00:08.008Z,100290.04
2023-04-05T00:03:00.370Z,100292.14
2023-04-05T00:05:30.226Z,100285.41
2023-04-05T00:08:01.213Z,100285.30
2023-04-05T00:10:29.922Z,100286.55
2023-04-05T00:12:58.647Z,100286.20
2023-04-05T00:15:28.453Z,100282.59
2023-04-05T00:17:57.651Z,100282.23
2023-04-05T00:20:28.644Z,100280.12
2023-04-05T00:22:57.284Z,100281.30
2023-04-05T00:25:26.145Z,100279.50
2023-04-05T00:27:55.429Z,100276.32
2023-04-05T00:30:25.261Z,100278.20
2023-04-05T00:32:53.474Z,100277.52
2023-04-05T00:35:22.703Z,100277.86
2023-04-05T00:37:51.203Z,100279.94
2023-04-05T00:40:19.763Z,100278.95
2023-04-05T00:42:50.836Z,100277.59
2023-04-05T00:45:19.278Z,100277.83
2023-04-05T00:47:47.785Z,100275.09
2023-04-05T00:50:16.658Z,100277.22
2023-04-05T00:52:45.399Z,100272.89
2023-04-05T00:55:14.275Z,100269.09
2023-04-05T00:57:44.665Z,100270.14
2023-04-05T01:00:14.873Z,100265.95
2023-04-05T01:02:47.459Z,100263.98
2023-04-05T01:05:20.138Z,100259.09
2023-04-05T01:07:50.892Z,100259.20
2023-04-05T01:10:22.200Z,100253.31
2023-04-05T01:12:50.692Z,100258.02
2023-04-05T01:15:19.176Z,100253.89
2023-04-05T01:17:48.666Z,100254.57
2023-04-05T01:20:17.527Z,100249.88
2023-04-05T01:23:06.455Z,100252.80
2023-04-05T01:25:59.482Z,100253.29
2023-04-05T01:28:41.002Z,100250.89
2023-04-05T01:31:15.130Z,100249.48
2023-04-05T01:33:50.178Z,100247.75
2023-04-05T01:36:23.593Z,100250.55
2023-04-05T01:38:54.108Z,100248.12
2023-04-05T01:41:23.712Z,100244.50
2023-04-05T01:43:52.989Z,100247.13
2023-04-05T01:46:21.488Z,100241.91
2023-04-05T01:48:50.120Z,100241.73
2023-04-05T01:51:19.500Z,100232.89
2023-04-05T01:53:47.893Z,100237.59
2023-04-05T01:56:16.194Z,100235.88
2023-04-05T01:58:44.583Z,100237.63
2023-04-05T02:01:12.938Z,100232.62
2023-04-05T02:03:41.532Z,100233.51
2023-04-05T02:06:10.306Z,100235.23
2023-04-05T02:08:38.741Z,100231.59
2023-04-05T02:11:07.319Z,100233.20
2023-04-05T02:13:36.496Z,100231.83
2023-04-05T02:16:04.990Z,100227.52
2023-04-05T02:18:33.452Z,100230.88
2023-04-05T02:21:04.975Z,100231.75
2023-04-05T02:23:36.527Z,100229.29
2023-04-05T02:26:04.992Z,100231.72
2023-04-05T02:28:33.892Z,100230.25
2023-04-05T02:31:02.827Z,100230.60
2023-04-05T02:33:31.063Z,100234.93
2023-04-05T02:35:59.890Z,100232.85
2023-04-05T02:38:28.494Z,100233.25
2023-04-05T02:40:59.052Z,100230.33
2023-04-05T02:43:29.500Z,100229.84
2023-04-05T02:45:58.421Z,100227.45
2023-04-05T02:48:29.986Z,100225.89
2023-04-05T02:50:58.368Z,100226.37
2023-04-05T02:53:28.345Z,100225.66
2023-04-05T02:55:57.609Z,100227.05
2023-04-05T02:58:26.956Z,100227.20
2023-04-05T03:00:56.623Z,100229.10
2023-04-05T03:03:26.472Z,100232.21
2023-04-05T03:05:58.759Z,100231.87
2023-04-05T03:08:28.387Z,100233.10
2023-04-05T03:10:57.146Z,100236.59
2023-04-05T03:13:26.460Z,100233.66
2023-04-05T03:15:56.369Z,100236.64
2023-04-05T03:18:26.292Z,100236.83
2023-04-05T03:20:56.298Z,100239.08
2023-04-05T03:23:26.638Z,100236.63
2023-04-05T03:25:56.865Z,100237.16
2023-04-05T03:28:27.312Z,100237.54
2023-04-05T03:30:57.848Z,100239.98
2023-04-05T03:33:27.051Z,100240.84
2023-04-05T03:35:56.395Z,100238.20
2023-04-05T03:38:26.371Z,100241.48
2023-04-05T03:40:54.703Z,100239.80
2023-04-05T03:43:24.485Z,100242.26
2023-04-05T03:45:54.332Z,100243.66
2023-04-05T03:48:24.214Z,100244.55
2023-04-05T03:50:54.321Z,100246.79
2023-04-05T03:53:23.721Z,100246.76
2023-04-05T03:55:56.583Z,100250.38
2023-04-05T03:58:27.698Z,100253.48
2023-04-05T04:00:56.844Z,100251.61
2023-04-05T04:03:28.274Z,100254.23
2023-04-05T04:05:58.142Z,100253.92
2023-04-05T04:08:51.770Z,100254.86
2023-04-05T04:11:26.911Z,100252.70
2023-04-05T04:14:15.641Z,100251.88
2023-04-05T04:17:01.752Z,100249.31
2023-04-05T04:19:30.975Z,100251.05
2023-04-05T04:21:59.416Z,100255.39
2023-04-05T04:24:32.190Z,100254.83
2023-04-05T04:27:00.996Z,100252.88
2023-04-05T04:29:30.693Z,100254.77
2023-04-05T04:32:00.610Z,100250.42
2023-04-05T04:34:30.055Z,100255.25
2023-04-05T04:37:00.767Z,100254.70
2023-04-05T04:39:31.096Z,100255.23
2023-04-05T04:42:00.886Z,100254.88
2023-04-05T04:44:30.826Z,100252.45
2023-04-05T04:46:59.444Z,100252.48
2023-04-05T04:49:29.865Z,100257.70
2023-04-05T04:51:59.130Z,100257.69
2023-04-05T04:54:29.016Z,100258.37
2023-04-05T04:56:58.249Z,100258.53
2023-04-05T04:59:27.800Z,100262.86
2023-04-05T05:01:57.639Z,100262.16
2023-04-05T05:04:31.199Z,100264.23
2023-04-05T05:06:59.936Z,100262.45
2023-04-05T05:09:28.752Z,100268.50
2023-04-05T05:11:59.068Z,100266.39
2023-04-05T05:14:28.063Z,100267.77
2023-04-05T05:16:58.543Z,100269.02
2023-04-05T05:19:28.422Z,100268.38
2023-04-05T05:21:58.132Z,100272.94
2023-04-05T05:24:27.368Z,100271.73
2023-04-05T05:26:57.665Z,100271.43
2023-04-05T05:29:26.890Z,100273.86
2023-04-05T05:31:55.628Z,100273.17
2023-04-05T05:34:30.616Z,100269.22
2023-04-05T05:37:00.421Z,100274.95
2023-04-05T05:39:29.270Z,100272.34
2023-04-05T05:41:58.477Z,100271.65
2023-04-05T05:44:29.343Z,100269.20
2023-04-05T05:46:58.307Z,100271.95
2023-04-05T05:49:27.782Z,100267.95
2023-04-05T05:51:57.353Z,100270.23
2023-04-05T05:54:27.928Z,100270.75
2023-04-05T05:56:57.444Z,100266.59
2023-04-05T05:59:26.253Z,100265.23
2023-04-05T06:01:55.612Z,100268.84
2023-04-05T06:04:25.480Z,100266.17
2023-04-05T06:06:55.515Z,100265.83
2023-04-05T06:09:25.231Z,100271.58
2023-04-05T06:11:56.971Z,100272.33
2023-04-05T06:14:26.214Z,100277.20
2023-04-05T06:16:55.260Z,100279.08
2023-04-05T06:19:23.657Z,100283.63
2023-04-05T06:21:51.955Z,100286.49
2023-04-05T06:24:20.661Z,100284.13
2023-04-05T06:26:50.549Z,100283.09
2023-04-05T06:29:21.145Z,100285.70
2023-04-05T06:31:53.939Z,100292.09
2023-04-05T06:34:22.510Z,100289.84
2023-04-05T06:36:50.781Z,100290.50
2023-04-05T06:39:20.439Z,100287.73
2023-04-05T06:41:48.998Z,100289.83
2023-04-05T06:44:17.275Z,100294.23
2023-04-05T06:46:47.399Z,100295.27
2023-04-05T06:49:15.810Z,100295.77
2023-04-05T06:51:47.347Z,100295.95
2023-04-05T06:54:16.509Z,100293.36
2023-04-05T06:56:45.653Z,100298.41
2023-04-05T06:59:14.084Z,100297.89
2023-04-05T07:01:42.601Z,100298.27
2023-04-05T07:04:11.101Z,100298.51
2023-04-05T07:06:40.234Z,100300.83
2023-04-05T07:09:08.604Z,100304.52
2023-04-05T07:11:38.419Z,100305.27
2023-04-05T07:14:07.201Z,100306.88
2023-04-05T07:16:35.875Z,100310.02
2023-04-05T07:19:06.727Z,100312.24
2023-04-05T07:21:35.020Z,100314.15
2023-04-05T07:24:03.589Z,100316.60
2023-04-05T07:26:34.424Z,100320.20
2023-04-05T07:29:02.721Z,100322.63
2023-04-05T07:31:31.503Z,100321.59
2023-04-05T07:34:00.678Z,100322.13
2023-04-05T07:36:30.314Z,100319.68
2023-04-05T07:39:00.388Z,100316.20
2023-04-05T07:41:31.826Z,100313.80
2023-04-05T07:44:00.303Z,100317.27
2023-04-05T07:46:31.090Z,100317.91
2023-04-05T07:49:01.548Z,100314.41
2023-04-05T07:51:31.035Z,100317.54
2023-04-05T07:54:03.076Z,100319.10
2023-04-05T07:56:32.609Z,100319.12
2023-04-05T07:59:01.401Z,100322.12
2023-04-05T08:01:31.028Z,100324.59
2023-04-05T08:04:00.064Z,100325.80
2023-04-05T08:06:29.568Z,100323.05
2023-04-05T08:08:59.477Z,100321.50
2023-04-05T08:11:29.618Z,100323.60
2023-04-05T08:14:00.316Z,100326.95
2023-04-05T08:16:30.771Z,100329.58
2023-04-05T08:19:00.881Z,100328.19
2023-04-05T08:21:30.104Z,100330.45
2023-04-05T08:24:00.939Z,100327.54
2023-04-05T08:26:32.266Z,100327.04
2023-04-05T08:29:01.068Z,100331.55
2023-04-05T08:31:30.920Z,100326.34
2023-04-05T08:34:03.637Z,100328.27
2023-04-05T08:36:33.333Z,100329.86
2023-04-05T08:39:05.670Z,100328.84
2023-04-05T08:41:36.254Z,100329.70
2023-04-05T08:44:23.593Z,100331.09
2023-04-05T08:46:56.438Z,100333.00
2023-04-05T08:49:30.122Z,100330.92
2023-04-05T08:52:18.673Z,100333.54
2023-04-05T08:54:49.644Z,100338.95
2023-04-05T08:57:27.867Z,100343.83
2023-04-05T08:59:59.769Z,100341.92
2023-04-05T09:02:30.010Z,100346.27
2023-04-05T09:05:33.822Z,100349.03
2023-04-05T09:08:02.108Z,100355.65
2023-04-05T09:10:31.536Z,100353.21
2023-04-05T09:13:02.843Z,100355.16
2023-04-05T09:15:44.158Z,100356.91
2023-04-05T09:18:25.581Z,100359.00
2023-04-05T09:21:03.676Z,100355.58
2023-04-05T09:23:33.957Z,100360.61
2023-04-05T09:26:17.036Z,100364.79
2023-04-05T09:28:45.314Z,100360.97
2023-04-05T09:31:28.649Z,100360.44
2023-04-05T09:33:59.980Z,100355.52
2023-04-05T09:36:29.842Z,100351.30
2023-04-05T09:39:06.372Z,100350.04
2023-04-05T09:41:37.293Z,100344.98
2023-04-05T09:44:05.681Z,100346.05
2023-04-05T09:46:36.699Z,100349.70
2023-04-05T09:49:10.118Z,100345.55
2023-04-05T09:51:39.195Z,100344.84
2023-04-05T09:54:08.045Z,100340.83
2023-04-05T09:56:36.865Z,100347.10
2023-04-05T09:59:25.014Z,100343.23
2023-04-05T10:01:53.844Z,100339.71
2023-04-05T10:04:24.353Z,100343.37
2023-04-05T10:06:52.994Z,100336.23
2023-04-05T10:09:22.089Z,100339.36
2023-04-05T10:11:51.009Z,100340.02
2023-04-05T10:14:19.979Z,100337.56
2023-04-05T10:16:53.318Z,100339.34
2023-04-05T10:19:26.736Z,100336.56
2023-04-05T10:21:58.896Z,100333.38
2023-04-05T10:24:36.226Z,100325.42
2023-04-05T10:27:06.406Z,100326.54
2023-04-05T10:29:43.786Z,100324.01
2023-04-05T10:32:18.251Z,100327.10
2023-04-05T10:34:51.165Z,100328.50
2023-04-05T10:37:26.514Z,100322.19
2023-04-05T10:39:57.795Z,100326.02
2023-04-05T10:42:28.572Z,100327.38
2023-04-05T10:45:04.010Z,100328.45
2023-04-05T10:47:36.930Z,100323.91
2023-04-05T10:50:08.624Z,100322.52
2023-04-05T10:52:37.118Z,100314.82
2023-04-05T10:55:06.369Z,100319.46
2023-04-05T10:57:35.228Z,100325.91
2023-04-05T11:00:04.962Z,100326.40
2023-04-05T11:02:33.576Z,100327.27
2023-04-05T11:05:04.716Z,100326.23
2023-04-05T11:07:43.685Z,100327.80
2023-04-05T11:10:17.525Z,100327.02
2023-04-05T11:13:05.716Z,100329.09
2023-04-05T11:15:34.653Z,100335.38
2023-04-05T11:18:04.417Z,100335.22
2023-04-05T11:20:43.671Z,100333.50
2023-04-05T11:23:13.440Z,100333.70
2023-04-05T11:25:46.499Z,100329.36
2023-04-05T11:28:25.623Z,100332.30
2023-04-05T11:30:56.225Z,100328.60
2023-04-05T11:33:37.610Z,100326.23
2023-04-05T11:36:06.500Z,100323.61
2023-04-05T11:38:35.229Z,100323.48
2023-04-05T11:41:07.602Z,100322.48
2023-04-05T11:43:38.224Z,100319.65
2023-04-05T11:46:06.900Z,100313.31
2023-04-05T11:48:36.081Z,100311.78
2023-04-05T11:51:15.994Z,100308.27
2023-04-05T11:53:47.787Z,100308.64
2023-04-05T11:56:25.992Z,100306.05
2023-04-05T11:59:05.257Z,100304.39
2023-04-05T12:01:34.001Z,100296.71
2023-04-05T12:04:03.556Z,100301.47
2023-04-05T12:06:32.396Z,100305.89
2023-04-05T12:09:01.501Z,100305.22
2023-04-05T12:11:31.653Z,100304.01
2023-04-05T12:14:02.202Z,100301.67
2023-04-05T12:16:32.202Z,100303.16
2023-04-05T12:19:01.637Z,100298.98
2023-04-05T12:21:32.277Z,100295.41
2023-04-05T12:24:01.816Z,100296.99
2023-04-05T12:26:34.055Z,100302.15
2023-04-05T12:29:04.920Z,100301.06
2023-04-05T12:31:37.800Z,100302.36
2023-04-05T12:34:08.621Z,100302.75
2023-04-05T12:36:36.964Z,100298.02
2023-04-05T12:39:15.979Z,100296.70
2023-04-05T12:41:58.397Z,100297.02
2023-04-05T12:44:31.749Z,100295.45
2023-04-05T12:47:04.812Z,100296.95
2023-04-05T12:49:38.119Z,100299.02
2023-04-05T12:52:06.615Z,100300.38
2023-04-05T12:54:35.162Z,100296.49
2023-04-05T12:57:08.348Z,100298.11
2023-04-05T12:59:37.310Z,100296.95
2023-04-05T13:02:05.756Z,100289.45
2023-04-05T13:04:34.107Z,100287.19
2023-04-05T13:07:02.848Z,100284.91
2023-04-05T13:09:32.327Z,100285.11
2023-04-05T13:12:01.835Z,100283.83
2023-04-05T13:14:31.000Z,100283.41
2023-04-05T13:17:00.132Z,100284.77
2023-04-05T13:19:28.263Z,100284.02
2023-04-05T13:21:57.443Z,100283.10
2023-04-05T13:24:25.889Z,100282.18
2023-04-05T13:26:54.562Z,100287.85
2023-04-05T13:29:22.803Z,100283.81
2023-04-05T13:31:51.032Z,100283.02
2023-04-05T13:34:19.362Z,100281.56
2023-04-05T13:36:49.021Z,100285.47
2023-04-05T13:39:17.370Z,100281.66
2023-04-05T13:41:45.891Z,100279.58
2023-04-05T13:44:14.424Z,100281.30
2023-04-05T13:46:42.817Z,100277.40
2023-04-05T13:49:11.442Z,100282.29
2023-04-05T13:51:40.869Z,100283.63
2023-04-05T13:54:11.305Z,100280.33
2023-04-05T13:56:40.091Z,100283.15
2023-04-05T13:59:08.604Z,100286.64
2023-04-05T14:01:37.041Z,100289.86
2023-04-05T14:04:05.484Z,100288.67
2023-04-05T14:06:33.917Z,100295.56
2023-04-05T14:09:02.631Z,100289.68
2023-04-05T14:11:33.795Z,100288.08
2023-04-05T14:14:03.318Z,100289.27
2023-04-05T14:16:32.816Z,100289.09
2023-04-05T14:19:01.959Z,100285.92
2023-04-05T14:21:33.898Z,100287.77
2023-04-05T14:24:02.487Z,100288.61
2023-04-05T14:26:32.094Z,100297.96
2023-04-05T14:29:01.647Z,100292.95
2023-04-05T14:31:31.017Z,100291.56
2023-04-05T14:34:00.700Z,100289.45
2023-04-05T14:36:29.159Z,100290.88
2023-04-05T14:39:01.758Z,100287.77
2023-04-05T14:41:31.011Z,100294.35
2023-04-05T14:43:59.330Z,100297.00
2023-04-05T14:46:29.234Z,100296.15
2023-04-05T14:48:58.635Z,100294.79
2023-04-05T14:51:27.710Z,100296.56
2023-04-05T14:53:55.995Z,100300.20
2023-04-05T14:56:25.323Z,100306.17
2023-04-05T14:58:53.718Z,100307.45
2023-04-05T15:01:22.319Z,100308.20
2023-04-05T15:03:51.997Z,100308.77
2023-04-05T15:06:21.665Z,100307.40
2023-04-05T15:08:50.882Z,100313.87
2023-04-05T15:11:21.056Z,100315.11
2023-04-05T15:13:49.789Z,100317.05
2023-04-05T15:16:18.384Z,100318.48
2023-04-05T15:18:47.021Z,100312.73
2023-04-05T15:21:15.479Z,100315.38
2023-04-05T15:23:43.930Z,100309.98
2023-04-05T15:26:12.758Z,100309.13
2023-04-05T15:28:41.360Z,100312.45
2023-04-05T15:31:10.170Z,100316.84
2023-04-05T15:33:39.140Z,100318.08
2023-04-05T15:36:08.124Z,100322.45
2023-04-05T15:38:36.666Z,100316.19
2023-04-05T15:41:05.586Z,100316.54
2023-04-05T15:43:34.050Z,100315.66
2023-04-05T15:46:04.766Z,100312.20
2023-04-05T15:48:33.470Z,100318.65
2023-04-05T15:51:02.480Z,100315.17
2023-04-05T15:53:31.751Z,100320.23
2023-04-05T15:56:02.980Z,100314.66
2023-04-05T15:58:32.231Z,100317.80
2023-04-05T16:01:01.454Z,100316.07
2023-04-05T16:03:31.926Z,100315.73
2023-04-05T16:06:01.325Z,100314.85
2023-04-05T16:08:33.119Z,100316.79
2023-04-05T16:11:02.418Z,100313.48
2023-04-05T16:13:31.664Z,100312.96
2023-04-05T16:16:01.481Z,100323.08
2023-04-05T16:18:31.438Z,100316.47
2023-04-05T16:21:00.929Z,100311.77
2023-04-05T16:23:30.905Z,100309.67
2023-04-05T16:25:59.670Z,100312.83
2023-04-05T16:28:28.877Z,100308.64
2023-04-05T16:30:59.478Z,100310.22
2023-04-05T16:33:29.155Z,100313.02
2023-04-05T16:35:58.504Z,100312.65
2023-04-05T16:38:26.985Z,100313.37
2023-04-05T16:40:55.579Z,100316.16
2023-04-05T16:43:23.879Z,100317.22
2023-04-05T16:45:52.549Z,100324.90
2023-04-05T16:48:24.653Z,100325.27
2023-04-05T16:50:53.524Z,100323.35
2023-04-05T16:53:22.037Z,100320.91
2023-04-05T16:55:52.254Z,100322.48
2023-04-05T16:58:22.489Z,100321.95
2023-04-05T17:00:55.086Z,100324.05
2023-04-05T17:03:23.960Z,100326.14
2023-04-05T17:05:57.827Z,100328.58
2023-04-05T17:08:26.811Z,100331.36
2023-04-05T17:10:55.561Z,100330.15
2023-04-05T17:13:24.097Z,100337.46
2023-04-05T17:15:52.615Z,100346.66
2023-04-05T17:18:21.154Z,100338.64
2023-04-05T17:20:49.953Z,100355.17
2023-04-05T17:23:18.425Z,100357.43
2023-04-05T17:25:47.051Z,100361.45
2023-04-05T17:28:15.786Z,100366.47
2023-04-05T17:30:44.389Z,100363.52
2023-04-05T17:33:13.307Z,100363.86
2023-04-05T17:35:41.973Z,100366.13
2023-04-05T17:38:11.182Z,100369.07
2023-04-05T17:40:39.859Z,100377.77
2023-04-05T17:43:08.931Z,100383.85
2023-04-05T17:45:37.893Z,100382.29
2023-04-05T17:48:06.674Z,100388.20
2023-04-05T17:50:39.817Z,100391.67
2023-04-05T17:53:08.386Z,100395.49
2023-04-05T17:55:38.909Z,100396.89
2023-04-05T17:58:07.403Z,100406.81
2023-04-05T18:00:36.000Z,100411.84
2023-04-05T18:03:08.204Z,100413.75
2023-04-05T18:05:37.738Z,100413.92
2023-04-05T18:08:06.264Z,100416.19
2023-04-05T18:10:34.704Z,100409.90
2023-04-05T18:13:05.656Z,100416.33
2023-04-05T18:15:34.033Z,100415.13
2023-04-05T18:18:08.108Z,100419.49
2023-04-05T18:20:36.866Z,100422.10
2023-04-05T18:23:05.813Z,100426.60
2023-04-05T18:25:35.730Z,100424.02
2023-04-05T18:28:15.611Z,100429.06
2023-04-05T18:30:50.774Z,100426.08
2023-04-05T18:33:21.751Z,100431.81
2023-04-05T18:35:51.121Z,100436.98
2023-04-05T18:38:19.985Z,100434.35
2023-04-05T18:40:48.743Z,100433.30
2023-04-05T18:43:17.458Z,100431.01
2023-04-05T18:45:46.152Z,100432.89
2023-04-05T18:48:14.897Z,100431.14
2023-04-05T18:50:43.574Z,100428.34
2023-04-05T18:53:13.357Z,100431.09
2023-04-05T18:55:41.881Z,100436.80
2023-04-05T18:58:17.364Z,100432.64
2023-04-05T19:00:45.953Z,100428.28
2023-04-05T19:03:18.051Z,100430.19
2023-04-05T19:06:02.175Z,100427.92
2023-04-05T19:08:30.929Z,100430.33
2023-04-05T19:11:00.157Z,100433.44
2023-04-05T19:13:28.827Z,100427.98
2023-04-05T19:15:57.865Z,100424.46
2023-04-05T19:18:27.384Z,100420.23
2023-04-05T19:20:56.796Z,100419.02
2023-04-05T19:23:25.816Z,100420.04
2023-04-05T19:25:54.810Z,100420.85
2023-04-05T19:28:24.040Z,100423.08
2023-04-05T19:30:52.685Z,100425.68
2023-04-05T19:33:22.399Z,100425.67
2023-04-05T19:35:51.507Z,100414.73
2023-04-05T19:38:21.576Z,100420.45
2023-04-05T19:40:49.992Z,100417.19
2023-04-05T19:43:18.684Z,100418.55
2023-04-05T19:45:49.983Z,100416.23
2023-04-05T19:48:36.144Z,100411.17
2023-04-05T19:51:06.162Z,100417.08
2023-04-05T19:53:42.116Z,100409.77
2023-04-05T19:56:12.460Z,100406.61
2023-04-05T19:58:45.043Z,100405.54
2023-04-05T20:01:24.704Z,100412.76
2023-04-05T20:03:53.711Z,100403.69
2023-04-05T20:06:23.525Z,100399.16
2023-04-05T20:08:55.369Z,100404.19
2023-04-05T20:11:25.666Z,100405.52
2023-04-05T20:13:55.849Z,100395.73
2023-04-05T20:16:27.134Z,100395.89
2023-04-05T20:18:57.034Z,100398.29
2023-04-05T20:21:26.526Z,100389.45
2023-04-05T20:23:55.824Z,100393.63
2023-04-05T20:26:26.552Z,100396.37
2023-04-05T20:28:55.668Z,100394.06
2023-04-05T20:31:25.473Z,100395.27
2023-04-05T20:33:55.087Z,100389.32
2023-04-05T20:36:28.981Z,100392.23
2023-04-05T20:39:20.916Z,100397.16
2023-04-05T20:41:50.446Z,100398.98
2023-04-05T20:44:20.281Z,100394.59
2023-04-05T20:46:51.357Z,100396.77
2023-04-05T20:49:20.929Z,100398.81
2023-04-05T20:51:57.627Z,100395.32
2023-04-05T20:54:26.550Z,100402.52
2023-04-05T20:56:55.047Z,100397.25
2023-04-05T20:59:24.373Z,100393.44
2023-04-05T21:01:53.214Z,100396.02
2023-04-05T21:04:21.852Z,100395.60
2023-04-05T21:06:53.919Z,100392.89
2023-04-05T21:09:24.892Z,100387.48
2023-04-05T21:11:53.414Z,100388.20
2023-04-05T21:14:22.192Z,100395.79
2023-04-05T21:16:51.000Z,100388.77
2023-04-05T21:19:20.183Z,100382.86
2023-04-05T21:21:48.765Z,100386.85
2023-04-05T21:24:17.154Z,100379.58
2023-04-05T21:26:46.375Z,100382.00
2023-04-05T21:29:15.531Z,100381.77
2023-04-05T21:31:44.021Z,100380.20
2023-04-05T21:34:12.513Z,100377.05
2023-04-05T21:36:40.942Z,100379.97
2023-04-05T21:39:09.962Z,100378.52
2023-04-05T21:41:38.633Z,100378.18
2023-04-05T21:44:07.050Z,100379.90
2023-04-05T21:46:35.868Z,100378.68
2023-04-05T21:49:06.445Z,100376.09
2023-04-05T21:51:37.227Z,100378.30
2023-04-05T21:54:06.673Z,100374.84
2023-04-05T21:56:35.683Z,100375.20
2023-04-05T21:59:04.737Z,100374.02
2023-04-05T22:01:34.161Z,100372.31
2023-04-05T22:04:03.534Z,100374.98
2023-04-05T22:06:31.965Z,100371.36
2023-04-05T22:09:05.285Z,100371.43
2023-04-05T22:11:35.908Z,100370.00
2023-04-05T22:14:05.473Z,100371.09
2023-04-05T22:16:34.842Z,100366.27
2023-04-05T22:19:04.110Z,100368.79
2023-04-05T22:21:33.698Z,100368.23
2023-04-05T22:24:02.405Z,100367.33
2023-04-05T22:26:32.088Z,100368.67
2023-04-05T22:29:01.909Z,100362.59
2023-04-05T22:31:31.388Z,100364.45
2023-04-05T22:34:00.612Z,100363.84
2023-04-05T22:36:29.166Z,100361.38
2023-04-05T22:38:57.610Z,100357.55
2023-04-05T22:41:26.561Z,100360.60
2023-04-05T22:43:55.378Z,100359.73
2023-04-05T22:46:23.974Z,100358.13
2023-04-05T22:48:52.618Z,100360.96
2023-04-05T22:51:21.405Z,100353.85
2023-04-05T22:53:49.717Z,100354.94
2023-04-05T22:56:20.892Z,100357.70
2023-04-05T22:58:49.510Z,100352.48
2023-04-05T23:01:18.087Z,100351.22
2023-04-05T23:03:47.102Z,100349.79
2023-04-05T23:06:15.781Z,100348.87
2023-04-05T23:08:44.051Z,100345.37
2023-04-05T23:11:12.391Z,100347.04
2023-04-05T23:13:41.104Z,100346.17
2023-04-05T23:16:09.893Z,100343.41
2023-04-05T23:18:38.289Z,100342.02
2023-04-05T23:21:06.959Z,100344.88
2023-04-05T23:23:42.550Z,100345.33
2023-04-05T23:26:11.022Z,100339.52
2023-04-05T23:28:39.383Z,100341.70
2023-04-05T23:31:08.046Z,100340.46
2023-04-05T23:33:36.466Z,100337.83
2023-04-05T23:36:06.161Z,100336.45
2023-04-05T23:38:35.459Z,100339.21
2023-04-05T23:41:06.964Z,100334.02
2023-04-05T23:43:37.584Z,100333.10
2023-04-05T23:46:07.309Z,100328.25
2023-04-05T23:48:36.235Z,100334.05
2023-04-05T23:51:07.300Z,100326.42
2023-04-05T23:53:36.419Z,100328.15
2023-04-05T23:56:08.236Z,100326.45
2023-04-05T23:58:36.714Z,100320.48
